sensor_id;sensor_type;location;lat;lon;timestamp;pressure;altitude;pressure_sealevel;temperature;humidity
13612;BME280;6877;51.436;6.774;2022-12-20T00:02:05;101194.53;;;9.64;89.23
13612;BME280;6877;51.436;6.774;2022-12-20T00:04:32;101190.22;;;9.65;89.20
13612;BME280;6877;51.436;6.774;2022-12-20T00:07:03;101184.97;;;9.65;88.62
13612;BME280;6877;51.436;6.774;2022-12-20T00:09:34;101181.47;;;9.64;88.22
13612;BME280;6877;51.436;6.774;2022-12-20T00:12:01;101191.94;;;9.66;88.15
13612;BME280;6877;51.436;6.774;2022-12-20T00:14:27;101175.34;;;9.67;88.63
13612;BME280;6877;51.436;6.774;2022-12-20T00:16:59;101175.44;;;9.59;89.16
13612;BME280;6877;51.436;6.774;2022-12-20T00:19:30;101174.59;;;9.56;89.14
13612;BME280;6877;51.436;6.774;2022-12-20T00:21:57;101168.50;;;9.54;88.35
13612;BME280;6877;51.436;6.774;2022-12-20T00:24:23;101164.16;;;9.52;88.15
13612;BME280;6877;51.436;6.774;2022-12-20T00:26:50;101160.69;;;9.52;88.15
13612;BME280;6877;51.436;6.774;2022-12-20T00:29:16;101160.69;;;9.50;87.98
13612;BME280;6877;51.436;6.774;2022-12-20T00:31:43;101151.09;;;9.52;88.32
13612;BME280;6877;51.436;6.774;2022-12-20T00:34:09;101139.78;;;9.50;87.84
13612;BME280;6877;51.436;6.774;2022-12-20T00:36:38;101141.56;;;9.45;88.10
13612;BME280;6877;51.436;6.774;2022-12-20T00:39:04;101145.94;;;9.42;88.15
13612;BME280;6877;51.436;6.774;2022-12-20T00:41:36;101137.25;;;9.41;88.13
13612;BME280;6877;51.436;6.774;2022-12-20T00:44:03;101134.66;;;9.38;87.97
13612;BME280;6877;51.436;6.774;2022-12-20T00:46:34;101139.00;;;9.41;87.90
13612;BME280;6877;51.436;6.774;2022-12-20T00:49:01;101143.34;;;9.40;88.11
13612;BME280;6877;51.436;6.774;2022-12-20T00:51:32;101148.59;;;9.37;89.02
13612;BME280;6877;51.436;6.774;2022-12-20T00:53:59;101144.22;;;9.36;89.15
13612;BME280;6877;51.436;6.774;2022-12-20T00:56:25;101145.97;;;9.36;89.46
13612;BME280;6877;51.436;6.774;2022-12-20T00:58:51;101132.06;;;9.37;89.29
13612;BME280;6877;51.436;6.774;2022-12-20T01:01:26;101138.19;;;9.34;89.58
13612;BME280;6877;51.436;6.774;2022-12-20T01:03:53;101138.19;;;9.34;89.90
13612;BME280;6877;51.436;6.774;2022-12-20T01:06:25;101156.44;;;9.36;89.03
13612;BME280;6877;51.436;6.774;2022-12-20T01:08:57;101142.53;;;9.34;90.08
13612;BME280;6877;51.436;6.774;2022-12-20T01:11:26;101140.75;;;9.39;89.60
13612;BME280;6877;51.436;6.774;2022-12-20T01:14:01;101130.25;;;9.46;89.27
13612;BME280;6877;51.436;6.774;2022-12-20T01:16:34;101127.59;;;9.51;88.39
13612;BME280;6877;51.436;6.774;2022-12-20T01:19:08;101113.63;;;9.54;88.34
13612;BME280;6877;51.436;6.774;2022-12-20T01:21:35;101126.66;;;9.55;88.64
13612;BME280;6877;51.436;6.774;2022-12-20T01:24:03;101124.97;;;9.51;89.87
13612;BME280;6877;51.436;6.774;2022-12-20T01:26:29;101131.09;;;9.45;89.61
13612;BME280;6877;51.436;6.774;2022-12-20T01:28:58;101129.38;;;9.49;88.42
13612;BME280;6877;51.436;6.774;2022-12-20T01:31:26;101127.56;;;9.56;88.66
13612;BME280;6877;51.436;6.774;2022-12-20T01:33:53;101122.25;;;9.65;87.85
13612;BME280;6877;51.436;6.774;2022-12-20T01:36:22;101116.97;;;9.69;87.56
13612;BME280;6877;51.436;6.774;2022-12-20T01:38:58;101113.50;;;9.69;88.06
13612;BME280;6877;51.436;6.774;2022-12-20T01:41:26;101116.13;;;9.69;87.25
13612;BME280;6877;51.436;6.774;2022-12-20T01:44:04;101118.69;;;9.70;87.92
13612;BME280;6877;51.436;6.774;2022-12-20T01:46:33;101110.03;;;9.67;87.14
13612;BME280;6877;51.436;6.774;2022-12-20T01:49:13;101117.00;;;9.68;87.71
13612;BME280;6877;51.436;6.774;2022-12-20T01:57:09;101096.00;;;9.77;86.86
13612;BME280;6877;51.436;6.774;2022-12-20T01:59:39;101108.19;;;9.77;86.57
13612;BME280;6877;51.436;6.774;2022-12-20T02:02:12;101098.56;;;9.82;86.14
13612;BME280;6877;51.436;6.774;2022-12-20T02:04:43;101104.63;;;9.85;86.89
13612;BME280;6877;51.436;6.774;2022-12-20T02:07:12;101094.22;;;9.82;86.80
13612;BME280;6877;51.436;6.774;2022-12-20T02:09:41;101088.97;;;9.84;86.36
13612;BME280;6877;51.436;6.774;2022-12-20T02:12:10;101082.88;;;9.82;86.61
13612;BME280;6877;51.436;6.774;2022-12-20T02:17:56;101096.00;;;9.74;87.46
13612;BME280;6877;51.436;6.774;2022-12-20T02:24:12;101088.22;;;9.72;87.79
13612;BME280;6877;51.436;6.774;2022-12-20T02:32:19;101089.16;;;9.64;88.46
13612;BME280;6877;51.436;6.774;2022-12-20T02:34:53;101097.03;;;9.59;88.92
13612;BME280;6877;51.436;6.774;2022-12-20T02:37:20;101088.41;;;9.52;90.40
13612;BME280;6877;51.436;6.774;2022-12-20T02:39:52;101085.88;;;9.42;90.83
13612;BME280;6877;51.436;6.774;2022-12-20T02:42:24;101080.72;;;9.34;91.49
13612;BME280;6877;51.436;6.774;2022-12-20T02:45:01;101078.94;;;9.36;91.43
13612;BME280;6877;51.436;6.774;2022-12-20T02:47:53;101084.22;;;9.33;91.82
13612;BME280;6877;51.436;6.774;2022-12-20T02:50:40;101098.13;;;9.34;91.89
13612;BME280;6877;51.436;6.774;2022-12-20T02:53:10;101100.78;;;9.27;92.57
13612;BME280;6877;51.436;6.774;2022-12-20T02:55:47;101093.88;;;9.19;93.18
13612;BME280;6877;51.436;6.774;2022-12-20T02:58:35;101101.81;;;9.07;94.59
13612;BME280;6877;51.436;6.774;2022-12-20T03:01:13;101108.84;;;8.91;97.00
13612;BME280;6877;51.436;6.774;2022-12-20T03:03:42;101109.81;;;8.76;97.54
13612;BME280;6877;51.436;6.774;2022-12-20T03:06:14;101114.22;;;8.68;98.96
13612;BME280;6877;51.436;6.774;2022-12-20T03:08:46;101100.34;;;8.61;99.62
13612;BME280;6877;51.436;6.774;2022-12-20T03:11:17;101113.41;;;8.55;100.00
13612;BME280;6877;51.436;6.774;2022-12-20T03:13:45;101111.63;;;8.57;100.00
13612;BME280;6877;51.436;6.774;2022-12-20T03:16:16;101117.75;;;8.54;100.00
13612;BME280;6877;51.436;6.774;2022-12-20T03:18:48;101114.28;;;8.52;100.00
13612;BME280;6877;51.436;6.774;2022-12-20T03:21:19;101109.09;;;8.46;100.00
13612;BME280;6877;51.436;6.774;2022-12-20T03:23:50;101107.38;;;8.42;100.00
13612;BME280;6877;51.436;6.774;2022-12-20T03:26:17;101110.81;;;8.35;100.00
13612;BME280;6877;51.436;6.774;2022-12-20T03:28:48;101096.94;;;8.33;100.00
13612;BME280;6877;51.436;6.774;2022-12-20T03:31:20;101089.97;;;8.29;100.00
13612;BME280;6877;51.436;6.774;2022-12-20T03:33:46;101103.03;;;8.26;100.00
13612;BME280;6877;51.436;6.774;2022-12-20T03:36:13;101088.28;;;8.22;100.00
13612;BME280;6877;51.436;6.774;2022-12-20T03:38:39;101083.06;;;8.22;100.00
13612;BME280;6877;51.436;6.774;2022-12-20T03:41:05;101071.78;;;8.21;100.00
13612;BME280;6877;51.436;6.774;2022-12-20T03:43:37;101073.50;;;8.24;100.00
13612;BME280;6877;51.436;6.774;2022-12-20T03:46:03;101076.13;;;8.24;100.00
13612;BME280;6877;51.436;6.774;2022-12-20T03:48:30;101063.94;;;8.23;100.00
13612;BME280;6877;51.436;6.774;2022-12-20T03:51:01;101060.47;;;8.24;100.00
13612;BME280;6877;51.436;6.774;2022-12-20T03:53:33;101063.97;;;8.20;100.00
13612;BME280;6877;51.436;6.774;2022-12-20T03:55:59;101076.13;;;8.18;100.00
13612;BME280;6877;51.436;6.774;2022-12-20T03:58:26;101077.88;;;8.16;100.00
13612;BME280;6877;51.436;6.774;2022-12-20T04:00:52;101078.75;;;8.18;100.00
13612;BME280;6877;51.436;6.774;2022-12-20T04:03:18;101079.63;;;8.17;100.00
13612;BME280;6877;51.436;6.774;2022-12-20T04:05:45;101084.81;;;8.15;100.00
13612;BME280;6877;51.436;6.774;2022-12-20T04:08:11;101079.66;;;8.10;100.00
13612;BME280;6877;51.436;6.774;2022-12-20T04:10:43;101083.09;;;8.06;100.00
13612;BME280;6877;51.436;6.774;2022-12-20T04:13:34;101079.66;;;8.04;100.00
13612;BME280;6877;51.436;6.774;2022-12-20T04:16:06;101082.25;;;8.06;100.00
13612;BME280;6877;51.436;6.774;2022-12-20T04:18:37;101062.28;;;8.05;100.00
13612;BME280;6877;51.436;6.774;2022-12-20T04:21:04;101072.69;;;8.09;100.00
13612;BME280;6877;51.436;6.774;2022-12-20T04:23:39;101068.34;;;8.07;100.00
13612;BME280;6877;51.436;6.774;2022-12-20T04:26:07;101056.19;;;8.07;100.00
13612;BME280;6877;51.436;6.774;2022-12-20T04:28:34;101068.34;;;8.07;100.00
13612;BME280;6877;51.436;6.774;2022-12-20T04:31:01;101062.25;;;8.06;100.00
13612;BME280;6877;51.436;6.774;2022-12-20T04:33:33;101064.88;;;8.06;100.00
13612;BME280;6877;51.436;6.774;2022-12-20T04:35:59;101064.00;;;8.10;100.00
13612;BME280;6877;51.436;6.774;2022-12-20T04:38:30;101059.66;;;8.11;100.00
13612;BME280;6877;51.436;6.774;2022-12-20T04:40:57;101067.44;;;8.16;100.00
13612;BME280;6877;51.436;6.774;2022-12-20T04:43:24;101070.09;;;8.11;100.00
13612;BME280;6877;51.436;6.774;2022-12-20T04:45:55;101064.88;;;8.11;100.00
13612;BME280;6877;51.436;6.774;2022-12-20T04:48:27;101066.59;;;8.12;100.00
13612;BME280;6877;51.436;6.774;2022-12-20T04:50:55;101073.53;;;8.18;100.00
13612;BME280;6877;51.436;6.774;2022-12-20T04:53:22;101083.06;;;8.19;100.00
13612;BME280;6877;51.436;6.774;2022-12-20T04:56:07;101081.34;;;8.18;100.00
13612;BME280;6877;51.436;6.774;2022-12-20T04:58:34;101070.06;;;8.17;100.00
13612;BME280;6877;51.436;6.774;2022-12-20T05:01:00;101063.06;;;8.24;100.00
13612;BME280;6877;51.436;6.774;2022-12-20T05:03:27;101064.81;;;8.22;100.00
13612;BME280;6877;51.436;6.774;2022-12-20T05:05:53;101059.63;;;8.20;100.00
13612;BME280;6877;51.436;6.774;2022-12-20T05:08:25;101050.06;;;8.21;100.00
13612;BME280;6877;51.436;6.774;2022-12-20T05:10:51;101056.97;;;8.25;100.00
13612;BME280;6877;51.436;6.774;2022-12-20T05:13:23;101053.50;;;8.23;100.00
13612;BME280;6877;51.436;6.774;2022-12-20T05:15:50;101043.94;;;8.25;100.00
13612;BME280;6877;51.436;6.774;2022-12-20T05:18:24;101040.47;;;8.23;100.00
13612;BME280;6877;51.436;6.774;2022-12-20T05:20:54;101035.25;;;8.23;100.00
13612;BME280;6877;51.436;6.774;2022-12-20T05:23:41;101025.72;;;8.22;100.00
13612;BME280;6877;51.436;6.774;2022-12-20T05:26:33;101021.34;;;8.22;100.00
13612;BME280;6877;51.436;6.774;2022-12-20T05:29:01;101026.59;;;8.19;100.00
13612;BME280;6877;51.436;6.774;2022-12-20T05:31:33;101024.84;;;8.18;100.00
13612;BME280;6877;51.436;6.774;2022-12-20T05:33:59;101018.78;;;8.18;100.00
13612;BME280;6877;51.436;6.774;2022-12-20T05:36:26;101017.91;;;8.17;100.00
13612;BME280;6877;51.436;6.774;2022-12-20T05:38:53;101012.72;;;8.17;100.00
13612;BME280;6877;51.436;6.774;2022-12-20T05:41:19;101021.38;;;8.19;100.00
13612;BME280;6877;51.436;6.774;2022-12-20T05:43:51;101007.50;;;8.17;100.00
13612;BME280;6877;51.436;6.774;2022-12-20T05:46:17;101005.75;;;8.18;100.00
13612;BME280;6877;51.436;6.774;2022-12-20T05:48:44;101010.09;;;8.16;100.00
13612;BME280;6877;51.436;6.774;2022-12-20T05:51:10;101011.84;;;8.17;100.00
13612;BME280;6877;51.436;6.774;2022-12-20T05:53:36;101001.41;;;8.17;100.00
13612;BME280;6877;51.436;6.774;2022-12-20T05:56:03;101004.00;;;8.15;100.00
13612;BME280;6877;51.436;6.774;2022-12-20T05:58:34;100999.66;;;8.16;100.00
13612;BME280;6877;51.436;6.774;2022-12-20T06:01:03;101004.00;;;8.18;100.00
13612;BME280;6877;51.436;6.774;2022-12-20T06:03:30;100990.97;;;8.20;100.00
13612;BME280;6877;51.436;6.774;2022-12-20T06:05:56;100988.34;;;8.21;100.00
13612;BME280;6877;51.436;6.774;2022-12-20T06:08:23;100982.28;;;8.21;100.00
13612;BME280;6877;51.436;6.774;2022-12-20T06:10:50;100995.28;;;8.22;100.00
13612;BME280;6877;51.436;6.774;2022-12-20T06:13:17;100994.41;;;8.25;100.00
13612;BME280;6877;51.436;6.774;2022-12-20T06:15:43;100997.03;;;8.26;100.00
13612;BME280;6877;51.436;6.774;2022-12-20T06:18:10;100996.13;;;8.27;100.00
13612;BME280;6877;51.436;6.774;2022-12-20T06:20:37;100999.59;;;8.28;100.00
13612;BME280;6877;51.436;6.774;2022-12-20T06:23:03;100997.84;;;8.31;100.00
13612;BME280;6877;51.436;6.774;2022-12-20T06:25:35;101000.47;;;8.33;100.00
13612;BME280;6877;51.436;6.774;2022-12-20T06:28:02;101000.44;;;8.34;100.00
13612;BME280;6877;51.436;6.774;2022-12-20T06:30:33;101000.44;;;8.36;100.00
13612;BME280;6877;51.436;6.774;2022-12-20T06:33:05;100996.09;;;8.38;100.00
13612;BME280;6877;51.436;6.774;2022-12-20T06:35:31;100993.50;;;8.40;100.00
13612;BME280;6877;51.436;6.774;2022-12-20T06:38:03;100985.66;;;8.43;100.00
13612;BME280;6877;51.436;6.774;2022-12-20T06:40:34;100969.97;;;8.47;100.00
13612;BME280;6877;51.436;6.774;2022-12-20T06:43:01;100974.31;;;8.51;100.00
13612;BME280;6877;51.436;6.774;2022-12-20T06:45:27;100972.53;;;8.58;100.00
13612;BME280;6877;51.436;6.774;2022-12-20T06:47:56;100964.59;;;8.69;100.00
13612;BME280;6877;51.436;6.774;2022-12-20T06:50:27;100948.03;;;8.77;100.00
13612;BME280;6877;51.436;6.774;2022-12-20T06:52:58;100949.75;;;8.80;100.00
13612;BME280;6877;51.436;6.774;2022-12-20T06:55:25;100940.13;;;8.85;100.00
13612;BME280;6877;51.436;6.774;2022-12-20T06:57:51;100942.72;;;8.90;100.00
13612;BME280;6877;51.436;6.774;2022-12-20T07:00:18;100934.88;;;8.88;100.00
13612;BME280;6877;51.436;6.774;2022-12-20T07:02:45;100938.34;;;8.90;100.00
13612;BME280;6877;51.436;6.774;2022-12-20T07:05:11;100933.13;;;8.90;100.00
13612;BME280;6877;51.436;6.774;2022-12-20T07:07:39;100928.78;;;8.88;100.00
13612;BME280;6877;51.436;6.774;2022-12-20T07:10:07;100940.09;;;8.88;100.00
13612;BME280;6877;51.436;6.774;2022-12-20T07:12:33;100945.28;;;8.91;100.00
13612;BME280;6877;51.436;6.774;2022-12-20T07:15:00;100946.13;;;8.95;100.00
13612;BME280;6877;51.436;6.774;2022-12-20T07:17:31;100940.00;;;8.97;100.00
13612;BME280;6877;51.436;6.774;2022-12-20T07:19:57;100933.03;;;8.98;100.00
13612;BME280;6877;51.436;6.774;2022-12-20T07:22:24;100931.28;;;8.98;100.00
13612;BME280;6877;51.436;6.774;2022-12-20T07:24:51;100917.34;;;9.02;100.00
13612;BME280;6877;51.436;6.774;2022-12-20T07:27:18;100920.84;;;9.00;100.00
13612;BME280;6877;51.436;6.774;2022-12-20T07:29:44;100914.75;;;9.01;99.38
13612;BME280;6877;51.436;6.774;2022-12-20T07:32:11;100919.97;;;9.02;99.79
13612;BME280;6877;51.436;6.774;2022-12-20T07:34:39;100906.81;;;9.15;98.43
13612;BME280;6877;51.436;6.774;2022-12-20T07:37:05;100917.19;;;9.21;98.27
13612;BME280;6877;51.436;6.774;2022-12-20T07:39:38;100913.66;;;9.23;97.97
13612;BME280;6877;51.436;6.774;2022-12-20T07:42:05;100918.78;;;9.34;96.27
13612;BME280;6877;51.436;6.774;2022-12-20T07:44:31;100911.84;;;9.33;96.71
13612;BME280;6877;51.436;6.774;2022-12-20T07:46:57;100912.75;;;9.26;97.04
13612;BME280;6877;51.436;6.774;2022-12-20T07:49:24;100913.69;;;9.22;96.71
13612;BME280;6877;51.436;6.774;2022-12-20T07:51:54;100914.59;;;9.18;97.23
13612;BME280;6877;51.436;6.774;2022-12-20T07:54:29;100911.16;;;9.13;97.60
13612;BME280;6877;51.436;6.774;2022-12-20T07:56:58;100928.59;;;9.09;97.71
13612;BME280;6877;51.436;6.774;2022-12-20T07:59:30;100932.06;;;9.11;97.91
13612;BME280;6877;51.436;6.774;2022-12-20T08:02:04;100931.13;;;9.17;97.94
13612;BME280;6877;51.436;6.774;2022-12-20T08:04:32;100939.75;;;9.25;97.91
13612;BME280;6877;51.436;6.774;2022-12-20T08:07:00;100937.09;;;9.31;97.16
13612;BME280;6877;51.436;6.774;2022-12-20T08:09:31;100943.13;;;9.36;96.81
13612;BME280;6877;51.436;6.774;2022-12-20T08:12:07;100923.88;;;9.46;95.85
13612;BME280;6877;51.436;6.774;2022-12-20T08:14:40;100932.47;;;9.55;95.50
13612;BME280;6877;51.436;6.774;2022-12-20T08:17:12;100928.97;;;9.57;95.69
13612;BME280;6877;51.436;6.774;2022-12-20T08:19:39;100908.94;;;9.56;95.34
13612;BME280;6877;51.436;6.774;2022-12-20T08:22:10;100916.78;;;9.55;95.42
13612;BME280;6877;51.436;6.774;2022-12-20T08:24:42;100910.66;;;9.57;95.46
13612;BME280;6877;51.436;6.774;2022-12-20T08:27:08;100914.09;;;9.61;94.96
13612;BME280;6877;51.436;6.774;2022-12-20T08:29:34;100908.88;;;9.62;94.51
13612;BME280;6877;51.436;6.774;2022-12-20T08:32:01;100906.22;;;9.65;94.83
13612;BME280;6877;51.436;6.774;2022-12-20T08:34:27;100902.69;;;9.71;94.52
13612;BME280;6877;51.436;6.774;2022-12-20T08:36:54;100919.19;;;9.74;95.13
13612;BME280;6877;51.436;6.774;2022-12-20T08:39:20;100918.22;;;9.80;93.83
13612;BME280;6877;51.436;6.774;2022-12-20T08:41:51;100912.91;;;9.86;93.83
13612;BME280;6877;51.436;6.774;2022-12-20T08:44:23;100920.72;;;9.91;93.27
13612;BME280;6877;51.436;6.774;2022-12-20T08:46:50;100924.16;;;9.93;93.45
13612;BME280;6877;51.436;6.774;2022-12-20T08:49:19;100909.38;;;9.93;92.69
13612;BME280;6877;51.436;6.774;2022-12-20T08:51:45;100915.41;;;9.95;93.15
13612;BME280;6877;51.436;6.774;2022-12-20T08:54:12;100918.88;;;9.97;93.14
13612;BME280;6877;51.436;6.774;2022-12-20T08:56:38;100919.75;;;9.98;92.66
13612;BME280;6877;51.436;6.774;2022-12-20T08:59:04;100916.22;;;10.01;92.56
13612;BME280;6877;51.436;6.774;2022-12-20T09:01:31;100924.88;;;10.04;91.49
13612;BME280;6877;51.436;6.774;2022-12-20T09:03:58;100922.25;;;10.07;91.82
13612;BME280;6877;51.436;6.774;2022-12-20T09:06:25;100918.75;;;10.07;91.39
13612;BME280;6877;51.436;6.774;2022-12-20T09:08:58;100919.66;;;10.06;91.81
13612;BME280;6877;51.436;6.774;2022-12-20T09:11:26;100914.47;;;10.03;91.98
13612;BME280;6877;51.436;6.774;2022-12-20T09:13:58;100923.13;;;10.05;91.75
13612;BME280;6877;51.436;6.774;2022-12-20T09:16:27;100926.59;;;10.07;90.97
13612;BME280;6877;51.436;6.774;2022-12-20T09:18:56;100924.81;;;10.10;91.02
13612;BME280;6877;51.436;6.774;2022-12-20T09:21:23;100918.75;;;10.07;91.05
13612;BME280;6877;51.436;6.774;2022-12-20T09:23:51;100916.19;;;10.04;91.19
13612;BME280;6877;51.436;6.774;2022-12-20T09:26:19;100919.69;;;10.03;91.26
13612;BME280;6877;51.436;6.774;2022-12-20T09:28:46;100925.78;;;10.02;91.42
13612;BME280;6877;51.436;6.774;2022-12-20T09:31:15;100932.84;;;9.96;91.83
13612;BME280;6877;51.436;6.774;2022-12-20T09:33:43;100931.13;;;9.94;92.40
13612;BME280;6877;51.436;6.774;2022-12-20T09:36:15;100924.22;;;9.88;92.68
13612;BME280;6877;51.436;6.774;2022-12-20T09:38:48;100917.41;;;9.78;93.82
13612;BME280;6877;51.436;6.774;2022-12-20T09:41:33;100919.22;;;9.71;94.99
13612;BME280;6877;51.436;6.774;2022-12-20T09:44:24;100915.72;;;9.72;94.58
13612;BME280;6877;51.436;6.774;2022-12-20T09:47:06;100921.75;;;9.76;94.41
13612;BME280;6877;51.436;6.774;2022-12-20T09:49:40;100913.03;;;9.77;95.03
13612;BME280;6877;51.436;6.774;2022-12-20T09:55:46;100913.81;;;9.87;95.20
13612;BME280;6877;51.436;6.774;2022-12-20T10:01:19;100915.50;;;9.91;94.28
13612;BME280;6877;51.436;6.774;2022-12-20T10:03:46;100911.97;;;9.93;94.15
13612;BME280;6877;51.436;6.774;2022-12-20T10:06:32;100912.00;;;9.90;95.35
13612;BME280;6877;51.436;6.774;2022-12-20T10:09:05;100912.91;;;9.86;95.43
13612;BME280;6877;51.436;6.774;2022-12-20T10:12:32;100907.72;;;9.85;95.13
13612;BME280;6877;51.436;6.774;2022-12-20T10:23:20;100888.38;;;10.00;94.88
13612;BME280;6877;51.436;6.774;2022-12-20T10:25:53;100877.81;;;10.06;94.28
13612;BME280;6877;51.436;6.774;2022-12-20T10:28:27;100882.94;;;10.12;94.20
13612;BME280;6877;51.436;6.774;2022-12-20T10:31:09;100874.22;;;10.13;93.91
13612;BME280;6877;51.436;6.774;2022-12-20T10:33:37;100865.47;;;10.14;94.06
13612;BME280;6877;51.436;6.774;2022-12-20T10:36:27;100864.53;;;10.18;94.35
13612;BME280;6877;51.436;6.774;2022-12-20T10:38:56;100871.47;;;10.22;93.99
13612;BME280;6877;51.436;6.774;2022-12-20T10:41:44;100867.06;;;10.27;94.25
13612;BME280;6877;51.436;6.774;2022-12-20T10:46:53;100854.88;;;10.26;94.23
13612;BME280;6877;51.436;6.774;2022-12-20T10:51:54;100844.47;;;10.20;94.89
13612;BME280;6877;51.436;6.774;2022-12-20T10:54:42;100843.56;;;10.23;94.72
13612;BME280;6877;51.436;6.774;2022-12-20T10:59:56;100833.84;;;10.32;93.99
13612;BME280;6877;51.436;6.774;2022-12-20T11:02:34;100833.78;;;10.35;93.88
13612;BME280;6877;51.436;6.774;2022-12-20T11:08:06;100837.25;;;10.37;93.39
13612;BME280;6877;51.436;6.774;2022-12-20T11:10:28;100837.28;;;10.36;93.38
13612;BME280;6877;51.436;6.774;2022-12-20T11:12:57;100832.09;;;10.33;93.12
13612;BME280;6877;51.436;6.774;2022-12-20T11:15:30;100820.78;;;10.31;92.99
13612;BME280;6877;51.436;6.774;2022-12-20T11:18:09;100816.38;;;10.34;92.91
13612;BME280;6877;51.436;6.774;2022-12-20T11:36:55;100816.94;;;10.52;91.45
13612;BME280;6877;51.436;6.774;2022-12-20T11:39:39;100811.06;;;10.40;92.45
13612;BME280;6877;51.436;6.774;2022-12-20T11:47:48;100801.56;;;10.35;93.23
13612;BME280;6877;51.436;6.774;2022-12-20T11:55:53;100790.06;;;10.43;92.97
13612;BME280;6877;51.436;6.774;2022-12-20T12:01:11;100790.69;;;10.58;92.97
13612;BME280;6877;51.436;6.774;2022-12-20T12:03:43;100788.91;;;10.60;92.57
13612;BME280;6877;51.436;6.774;2022-12-20T12:06:20;100790.56;;;10.64;91.78
13612;BME280;6877;51.436;6.774;2022-12-20T12:08:57;100791.34;;;10.69;92.25
13612;BME280;6877;51.436;6.774;2022-12-20T12:11:32;100784.25;;;10.74;91.56
13612;BME280;6877;51.436;6.774;2022-12-20T12:14:02;100789.50;;;10.74;91.75
13612;BME280;6877;51.436;6.774;2022-12-20T12:16:40;100776.34;;;10.79;91.34
13612;BME280;6877;51.436;6.774;2022-12-20T12:19:09;100779.69;;;10.85;91.23
13612;BME280;6877;51.436;6.774;2022-12-20T12:21:46;100785.69;;;10.90;91.03
13612;BME280;6877;51.436;6.774;2022-12-20T12:24:24;100790.00;;;10.93;90.75
13612;BME280;6877;51.436;6.774;2022-12-20T12:26:54;100788.25;;;10.94;89.62
13612;BME280;6877;51.436;6.774;2022-12-20T12:29:23;100785.69;;;10.92;90.07
13612;BME280;6877;51.436;6.774;2022-12-20T12:39:35;100775.03;;;11.00;88.75
13612;BME280;6877;51.436;6.774;2022-12-20T12:44:45;100786.19;;;11.09;88.70
13612;BME280;6877;51.436;6.774;2022-12-20T12:47:41;100785.25;;;11.13;88.91
13612;BME280;6877;51.436;6.774;2022-12-20T12:50:15;100781.84;;;11.08;88.32
13612;BME280;6877;51.436;6.774;2022-12-20T12:52:51;100783.00;;;10.95;89.84
13612;BME280;6877;51.436;6.774;2022-12-20T12:55:38;100775.66;;;10.69;92.10
13612;BME280;6877;51.436;6.774;2022-12-20T12:58:31;100777.81;;;10.46;94.44
13612;BME280;6877;51.436;6.774;2022-12-20T13:01:11;100777.25;;;10.27;96.48
13612;BME280;6877;51.436;6.774;2022-12-20T13:11:33;100785.78;;;9.82;100.00
13612;BME280;6877;51.436;6.774;2022-12-20T13:21:58;100764.78;;;9.90;100.00
13612;BME280;6877;51.436;6.774;2022-12-20T13:27:26;100784.69;;;9.97;100.00
13612;BME280;6877;51.436;6.774;2022-12-20T13:40:39;100770.78;;;9.95;100.00
13612;BME280;6877;51.436;6.774;2022-12-20T13:45:47;100788.38;;;9.82;100.00
13612;BME280;6877;51.436;6.774;2022-12-20T13:48:18;100792.81;;;9.77;100.00
13612;BME280;6877;51.436;6.774;2022-12-20T13:50:52;100792.03;;;9.72;100.00
13612;BME280;6877;51.436;6.774;2022-12-20T13:53:22;100796.41;;;9.70;100.00
13612;BME280;6877;51.436;6.774;2022-12-20T13:55:54;100798.25;;;9.65;100.00
13612;BME280;6877;51.436;6.774;2022-12-20T13:58:24;100797.38;;;9.63;100.00
13612;BME280;6877;51.436;6.774;2022-12-20T14:00:51;100798.31;;;9.59;100.00
13612;BME280;6877;51.436;6.774;2022-12-20T14:03:22;100801.81;;;9.58;100.00
13612;BME280;6877;51.436;6.774;2022-12-20T14:06:02;100796.66;;;9.51;100.00
13612;BME280;6877;51.436;6.774;2022-12-20T14:08:38;100802.78;;;9.50;100.00
13612;BME280;6877;51.436;6.774;2022-12-20T14:11:14;100797.63;;;9.46;100.00
13612;BME280;6877;51.436;6.774;2022-12-20T14:13:54;100797.66;;;9.41;100.00
13612;BME280;6877;51.436;6.774;2022-12-20T14:16:28;100788.13;;;9.40;100.00
13612;BME280;6877;51.436;6.774;2022-12-20T14:21:27;100795.13;;;9.35;100.00
13612;BME280;6877;51.436;6.774;2022-12-20T14:23:59;100799.53;;;9.33;100.00
13612;BME280;6877;51.436;6.774;2022-12-20T14:26:28;100796.06;;;9.31;100.00
13612;BME280;6877;51.436;6.774;2022-12-20T14:28:57;100788.22;;;9.29;100.00
13612;BME280;6877;51.436;6.774;2022-12-20T14:36:47;100779.63;;;9.24;100.00
13612;BME280;6877;51.436;6.774;2022-12-20T14:39:21;100785.69;;;9.23;100.00
13612;BME280;6877;51.436;6.774;2022-12-20T14:44:31;100785.78;;;9.19;100.00
13612;BME280;6877;51.436;6.774;2022-12-20T14:47:00;100785.78;;;9.19;100.00
13612;BME280;6877;51.436;6.774;2022-12-20T14:49:31;100776.22;;;9.18;100.00
13612;BME280;6877;51.436;6.774;2022-12-20T14:52:06;100771.88;;;9.15;100.00
13612;BME280;6877;51.436;6.774;2022-12-20T14:54:43;100771.91;;;9.14;100.00
13612;BME280;6877;51.436;6.774;2022-12-20T14:57:21;100758.88;;;9.11;100.00
13612;BME280;6877;51.436;6.774;2022-12-20T15:00:18;100757.16;;;9.11;100.00
13612;BME280;6877;51.436;6.774;2022-12-20T15:10:52;100757.22;;;9.05;100.00
13612;BME280;6877;51.436;6.774;2022-12-20T15:13:22;100752.91;;;9.02;100.00
13612;BME280;6877;51.436;6.774;2022-12-20T15:15:51;100746.81;;;9.02;100.00
13612;BME280;6877;51.436;6.774;2022-12-20T15:18:19;100747.69;;;9.01;100.00
13612;BME280;6877;51.436;6.774;2022-12-20T15:23:25;100746.00;;;8.97;100.00
13612;BME280;6877;51.436;6.774;2022-12-20T15:25:51;100735.59;;;8.94;100.00
13612;BME280;6877;51.436;6.774;2022-12-20T15:28:24;100746.03;;;8.94;100.00
13612;BME280;6877;51.436;6.774;2022-12-20T15:30:56;100748.69;;;8.92;100.00
13612;BME280;6877;51.436;6.774;2022-12-20T15:33:25;100750.41;;;8.93;100.00
13612;BME280;6877;51.436;6.774;2022-12-20T15:35:53;100748.69;;;8.92;100.00
13612;BME280;6877;51.436;6.774;2022-12-20T15:38:22;100740.00;;;8.90;100.00
13612;BME280;6877;51.436;6.774;2022-12-20T15:40:56;100753.03;;;8.89;100.00
13612;BME280;6877;51.436;6.774;2022-12-20T15:43:25;100746.16;;;8.86;100.00